createdAt,value
2019-03-16T00:00:10.399Z,12.04
2019-03-16T00:00:52.728Z,12.12
2019-03-16T00:02:44.817Z,12.11
2019-03-16T00:04:28.685Z,12.13
2019-03-16T00:05:27.089Z,12.15
2019-03-16T00:07:37.662Z,12.15
2019-03-16T00:08:27.557Z,12.07
2019-03-16T00:09:08.626Z,12.11
2019-03-16T00:09:50.895Z,12.13
2019-03-16T00:10:33.514Z,12.15
2019-03-16T00:11:18.554Z,12.23
2019-03-16T00:11:59.972Z,12.12
2019-03-16T00:12:50.721Z,12.26
2019-03-16T00:13:31.087Z,12.23
2019-03-16T00:14:12.871Z,12.3
2019-03-16T00:14:53.004Z,12.12
2019-03-16T00:15:33.267Z,12.23
2019-03-16T00:16:13.870Z,12.13
2019-03-16T00:16:54.414Z,12.13
2019-03-16T00:17:36.725Z,12.13
2019-03-16T00:18:17.172Z,12.08
2019-03-16T00:18:59.377Z,12.13
2019-03-16T00:19:39.719Z,12.05
2019-03-16T00:20:24.838Z,11.96
2019-03-16T00:21:05.185Z,12
2019-03-16T00:21:46.463Z,12
2019-03-16T00:22:27.039Z,12.03
2019-03-16T00:23:09.092Z,11.97
2019-03-16T00:23:54.046Z,12.04
2019-03-16T00:24:35.359Z,12.04
2019-03-16T00:25:17.362Z,12.08
2019-03-16T00:25:57.749Z,12.04
2019-03-16T00:26:38.194Z,11.97
2019-03-16T00:27:18.573Z,11.98
2019-03-16T00:27:59.010Z,11.9
2019-03-16T00:28:40.428Z,11.9
2019-03-16T00:29:20.464Z,11.9
2019-03-16T00:30:01.199Z,11.96
2019-03-16T00:30:41.626Z,11.98
2019-03-16T00:31:21.982Z,12.04
2019-03-16T00:32:12.756Z,12.12
2019-03-16T00:32:43.828Z,12.11
2019-03-16T00:33:24.206Z,12.05
2019-03-16T00:34:04.568Z,12.05
2019-03-16T00:34:46.643Z,12.07
2019-03-16T00:35:28.039Z,12.05
2019-03-16T00:36:08.406Z,12.05
2019-03-16T00:36:49.016Z,12.01
2019-03-16T00:37:29.357Z,12.08
2019-03-16T00:38:09.844Z,12.11
2019-03-16T00:38:51.012Z,12.12
2019-03-16T00:39:31.332Z,11.97
2019-03-16T00:40:11.937Z,12.07
2019-03-16T00:41:11.130Z,12.04
2019-03-16T00:41:52.359Z,12.11
2019-03-16T00:42:34.683Z,12.16
2019-03-16T00:43:16.708Z,12.12
2019-03-16T00:43:56.972Z,12.05
2019-03-16T00:44:39.394Z,12.04
2019-03-16T00:45:20.976Z,12.15
2019-03-16T00:46:05.999Z,12.13
2019-03-16T00:46:47.153Z,12.12
2019-03-16T00:47:29.962Z,12.13
2019-03-16T00:48:10.655Z,12.23
2019-03-16T00:49:00.682Z,12.19
2019-03-16T00:51:27.313Z,12.21
2019-03-16T00:52:19.250Z,12.13
2019-03-16T00:52:58.133Z,12.15
2019-03-16T00:53:38.657Z,12.05
2019-03-16T00:54:19.193Z,12
2019-03-16T00:55:01.664Z,12.01
2019-03-16T00:55:42.050Z,11.97
2019-03-16T00:56:22.556Z,12.01
2019-03-16T00:57:03.858Z,11.96
2019-03-16T00:57:44.628Z,12.11
2019-03-16T00:58:28.331Z,12.08
2019-03-16T00:59:12.983Z,12.05
2019-03-16T00:59:53.407Z,12.04
2019-03-16T01:00:34.601Z,11.98
2019-03-16T01:01:15.040Z,11.98
2019-03-16T01:01:56.116Z,11.97
2019-03-16T01:02:37.022Z,11.98
2019-03-16T01:03:17.868Z,11.9
2019-03-16T01:03:59.437Z,11.96
2019-03-16T01:04:39.842Z,11.97
2019-03-16T01:05:20.467Z,11.94
2019-03-16T01:06:02.575Z,11.98
2019-03-16T01:06:42.946Z,11.98
2019-03-16T01:07:23.651Z,11.94
2019-03-16T01:08:06.071Z,11.97
2019-03-16T01:09:58.726Z,12
2019-03-16T01:12:14.719Z,11.97
2019-03-16T01:12:59.383Z,12.01
2019-03-16T01:16:28.622Z,11.84
2019-03-16T01:18:14.273Z,11.81
2019-03-16T01:19:47.771Z,11.79
2019-03-16T01:20:40.645Z,11.75
2019-03-16T01:21:30.347Z,11.77
2019-03-16T01:22:18.093Z,11.75
2019-03-16T01:23:01.837Z,11.72
2019-03-16T01:24:00.058Z,11.78
2019-03-16T01:24:42.084Z,11.66
2019-03-16T01:25:22.717Z,11.69
2019-03-16T01:26:03.634Z,11.64
2019-03-16T01:26:46.073Z,11.62
2019-03-16T01:27:26.990Z,11.64
2019-03-16T01:28:08.799Z,11.67
2019-03-16T01:28:52.811Z,11.72
2019-03-16T01:29:34.834Z,11.79
2019-03-16T01:30:18.702Z,11.74
2019-03-16T01:30:59.337Z,11.74
2019-03-16T01:31:40.015Z,11.77
2019-03-16T01:32:21.020Z,11.75
2019-03-16T01:33:02.466Z,11.77
2019-03-16T01:33:55.701Z,11.77
2019-03-16T01:36:45.147Z,11.81
2019-03-16T01:37:29.164Z,11.85
2019-03-16T01:38:09.661Z,11.87
2019-03-16T01:38:50.586Z,11.84
2019-03-16T01:39:32.089Z,12
2019-03-16T01:40:12.536Z,11.87
2019-03-16T01:40:53.625Z,11.85
2019-03-16T01:44:30.846Z,11.85
2019-03-16T01:46:09.629Z,11.93
2019-03-16T01:46:59.339Z,12.03
2019-03-16T01:47:38.413Z,11.98
2019-03-16T01:48:18.950Z,12.05
2019-03-16T01:49:00.619Z,11.98
2019-03-16T01:49:42.640Z,12.04
2019-03-16T01:50:23.603Z,11.96
2019-03-16T01:51:05.270Z,12.04
2019-03-16T01:51:45.259Z,11.97
2019-03-16T01:52:27.242Z,11.96
2019-03-16T01:57:12.405Z,12.08
2019-03-16T01:58:03.887Z,12
2019-03-16T02:00:08.255Z,12.01
2019-03-16T02:01:03.841Z,11.94
2019-03-16T02:03:12.275Z,11.94
2019-03-16T02:04:01.264Z,11.82
2019-03-16T02:04:47.179Z,11.88
2019-03-16T02:05:29.901Z,11.9
2019-03-16T02:06:11.170Z,11.84
2019-03-16T02:06:52.855Z,11.75
2019-03-16T02:07:33.503Z,11.72
2019-03-16T02:08:14.456Z,11.64
2019-03-16T02:08:54.689Z,11.69
2019-03-16T02:12:42.961Z,11.49
2019-03-16T02:13:30.588Z,11.48
2019-03-16T02:18:11.523Z,11.6
2019-03-16T02:19:01.542Z,11.62
2019-03-16T02:22:46.741Z,11.81
2019-03-16T02:25:18.543Z,11.77
2019-03-16T02:33:14.098Z,11.88
2019-03-16T02:36:04.917Z,11.82
2019-03-16T02:36:59.699Z,11.87
2019-03-16T02:38:53.674Z,11.63
2019-03-16T02:39:46.879Z,11.63
2019-03-16T02:40:40.876Z,11.56
2019-03-16T02:41:34.465Z,11.64
2019-03-16T02:44:25.680Z,11.53
2019-03-16T02:46:03.825Z,11.51
2019-03-16T02:47:45.211Z,11.28
2019-03-16T02:49:26.172Z,11.21
2019-03-16T02:50:20.667Z,11.16
2019-03-16T02:51:13.105Z,11.2
2019-03-16T02:51:52.259Z,11.2
2019-03-16T02:52:36.802Z,11.19
2019-03-16T02:53:20.508Z,11.38
2019-03-16T02:54:01.036Z,11.3
2019-03-16T02:54:43.200Z,11.26
2019-03-16T02:55:23.877Z,11.2
2019-03-16T02:56:04.650Z,11.16
2019-03-16T02:56:44.781Z,11.23
2019-03-16T02:57:25.310Z,11.27
2019-03-16T02:58:05.638Z,11.26
2019-03-16T02:58:46.008Z,11.35
2019-03-16T02:59:26.732Z,11.33
2019-03-16T03:00:07.183Z,11.31
2019-03-16T03:00:48.467Z,11.38
2019-03-16T03:01:28.440Z,11.36
2019-03-16T03:02:08.840Z,11.38
2019-03-16T03:02:49.185Z,11.35
2019-03-16T03:03:30.351Z,11.42
2019-03-16T03:04:10.145Z,11.44
2019-03-16T03:04:50.601Z,11.45
2019-03-16T03:05:31.053Z,11.44
2019-03-16T03:06:11.457Z,11.46
2019-03-16T03:06:52.071Z,11.36
2019-03-16T03:07:32.970Z,11.31
2019-03-16T03:08:13.287Z,11.3
2019-03-16T03:08:53.675Z,11.38
2019-03-16T03:09:34.038Z,11.38
2019-03-16T03:10:14.473Z,11.36
2019-03-16T03:10:54.834Z,11.33
2019-03-16T03:11:35.984Z,11.3
2019-03-16T03:12:15.651Z,11.31
2019-03-16T03:12:56.025Z,11.31
2019-03-16T03:13:36.372Z,11.35
2019-03-16T03:14:17.032Z,11.33
2019-03-16T03:14:57.307Z,11.36
2019-03-16T03:15:37.733Z,11.33
2019-03-16T03:16:18.093Z,11.38
2019-03-16T03:16:58.736Z,11.38
2019-03-16T03:17:39.081Z,11.31
2019-03-16T03:18:19.461Z,11.38
2019-03-16T03:19:00.877Z,11.38
2019-03-16T03:19:41.203Z,11.36
2019-03-16T03:20:21.771Z,11.35
2019-03-16T03:21:04.301Z,11.38
2019-03-16T03:21:46.377Z,11.33
2019-03-16T03:22:26.540Z,11.27
2019-03-16T03:23:06.757Z,11.27
2019-03-16T03:23:47.113Z,11.21
2019-03-16T03:24:27.499Z,11.2
2019-03-16T03:25:10.550Z,11.17
2019-03-16T03:25:50.834Z,11.16
2019-03-16T03:26:31.496Z,11.19
2019-03-16T03:27:11.912Z,11.21
2019-03-16T03:27:56.162Z,11.19
2019-03-16T03:28:40.220Z,11.21
2019-03-16T03:29:21.443Z,11.19
2019-03-16T03:30:02.348Z,11.13
2019-03-16T03:30:43.166Z,11.23
2019-03-16T03:31:23.854Z,11.2
2019-03-16T03:32:04.011Z,11.21
2019-03-16T03:32:44.463Z,11.31
2019-03-16T03:33:24.891Z,11.26
2019-03-16T03:34:06.920Z,11.24
2019-03-16T03:34:47.308Z,11.26
2019-03-16T03:35:29.359Z,11.33
2019-03-16T03:36:08.668Z,11.46
2019-03-16T03:36:51.004Z,11.46
2019-03-16T03:37:32.049Z,11.48
2019-03-16T03:38:12.398Z,11.48
2019-03-16T03:38:58.160Z,11.48
2019-03-16T03:39:40.788Z,11.49
2019-03-16T03:40:21.059Z,11.53
2019-03-16T03:41:02.024Z,11.53
2019-03-16T03:41:42.308Z,11.53
2019-03-16T03:42:22.564Z,11.57
2019-03-16T03:43:03.021Z,11.53
2019-03-16T03:43:43.426Z,11.51
2019-03-16T03:44:23.947Z,11.44
2019-03-16T03:45:04.186Z,11.45
2019-03-16T03:45:44.594Z,11.44
2019-03-16T03:46:25.344Z,11.35
2019-03-16T03:47:06.528Z,11.39
2019-03-16T03:47:47.630Z,11.42
2019-03-16T03:48:28.068Z,11.35
2019-03-16T03:49:08.494Z,11.31
2019-03-16T03:49:48.932Z,11.33
2019-03-16T03:50:29.247Z,11.36
2019-03-16T03:51:09.642Z,11.44
2019-03-16T03:51:50.299Z,11.53
2019-03-16T03:52:30.813Z,11.45
2019-03-16T03:53:11.418Z,11.45
2019-03-16T03:53:51.699Z,11.57
2019-03-16T03:54:32.125Z,11.44
2019-03-16T03:55:12.395Z,11.48
2019-03-16T03:55:52.938Z,11.44
2019-03-16T03:56:33.433Z,11.49
2019-03-16T03:57:13.747Z,11.45
2019-03-16T03:57:54.058Z,11.41
2019-03-16T03:58:34.477Z,11.45
2019-03-16T03:59:14.940Z,11.48
2019-03-16T03:59:55.276Z,11.45
2019-03-16T04:00:35.733Z,11.56
2019-03-16T04:01:16.387Z,11.57
2019-03-16T04:01:56.774Z,11.53
2019-03-16T04:02:37.145Z,11.51
2019-03-16T04:03:17.602Z,11.6
2019-03-16T04:04:13.983Z,11.62
2019-03-16T04:04:38.648Z,11.64
2019-03-16T04:05:18.778Z,11.66
2019-03-16T04:05:59.188Z,11.64
2019-03-16T04:06:40.736Z,11.69
2019-03-16T04:07:21.544Z,11.66
2019-03-16T04:08:01.760Z,11.62
2019-03-16T04:08:42.316Z,11.63
2019-03-16T04:09:22.728Z,11.7
2019-03-16T04:10:03.237Z,11.78
2019-03-16T04:10:43.651Z,11.67
2019-03-16T04:11:24.107Z,11.63
2019-03-16T04:12:04.552Z,11.69
2019-03-16T04:12:44.971Z,11.6
2019-03-16T04:13:25.474Z,11.72
2019-03-16T04:14:05.893Z,11.7
2019-03-16T04:14:46.991Z,11.67
2019-03-16T04:15:28.546Z,11.66
2019-03-16T04:16:08.940Z,11.69
2019-03-16T04:16:49.514Z,11.66
2019-03-16T04:17:30.779Z,11.69
2019-03-16T04:23:02.380Z,11.69
2019-03-16T04:23:54.800Z,11.66
2019-03-16T05:06:44.332Z,10.11
2019-03-16T05:07:34.677Z,10.07
2019-03-16T05:08:12.593Z,10.01
2019-03-16T05:08:54.037Z,9.99
2019-03-16T05:16:29.933Z,9.85
2019-03-16T05:17:09.975Z,9.83
2019-03-16T05:17:50.360Z,9.88
2019-03-16T05:18:30.875Z,9.71
2019-03-16T05:19:11.249Z,9.92
2019-03-16T05:19:51.567Z,9.8
2019-03-16T05:20:32.031Z,9.85
2019-03-16T05:21:12.321Z,9.83
2019-03-16T05:21:52.765Z,9.85
2019-03-16T05:22:33.124Z,9.88
2019-03-16T05:23:13.449Z,9.81
2019-03-16T05:23:53.853Z,9.85
2019-03-16T05:24:34.270Z,9.88
2019-03-16T05:25:14.644Z,9.89
2019-03-16T05:25:54.997Z,9.93
2019-03-16T05:26:35.434Z,10.02
2019-03-16T05:27:15.773Z,10.04
2019-03-16T05:27:56.208Z,9.99
2019-03-16T05:28:36.543Z,10.04
2019-03-16T05:29:16.970Z,10.02
2019-03-16T05:29:57.345Z,10.11
2019-03-16T05:30:37.717Z,10.13
2019-03-16T05:31:18.079Z,10.1
2019-03-16T05:31:58.457Z,10.13
2019-03-16T05:32:38.871Z,10.11
2019-03-16T05:33:19.189Z,10.11
2019-03-16T05:33:59.708Z,10.14
2019-03-16T05:34:40.083Z,10.18
2019-03-16T05:35:20.440Z,10.13
2019-03-16T05:36:00.806Z,10.13
2019-03-16T05:36:41.260Z,10.13
2019-03-16T05:37:21.668Z,10.06
2019-03-16T05:38:02.074Z,10.01
2019-03-16T05:38:42.455Z,10.04
2019-03-16T05:39:22.829Z,10.07
2019-03-16T05:40:04.046Z,10.06
2019-03-16T05:40:44.419Z,10.01
2019-03-16T05:41:24.777Z,10.04
2019-03-16T05:42:05.538Z,10.07
2019-03-16T05:42:45.555Z,10.07
2019-03-16T05:43:25.984Z,10.13
2019-03-16T05:44:06.345Z,10.13
2019-03-16T05:44:46.748Z,10.09
2019-03-16T05:45:27.074Z,10.09
2019-03-16T05:46:07.489Z,10.13
2019-03-16T05:46:47.914Z,10.02
2019-03-16T05:47:28.293Z,10.02
2019-03-16T05:48:08.643Z,10.02
2019-03-16T05:48:49.040Z,10.02
2019-03-16T05:49:29.416Z,10.06
2019-03-16T05:50:09.786Z,10.01
2019-03-16T05:50:50.181Z,9.96
2019-03-16T05:51:30.562Z,10.04
2019-03-16T05:52:10.926Z,9.98
2019-03-16T05:52:51.339Z,10.01
2019-03-16T05:53:31.693Z,9.96
2019-03-16T05:54:12.050Z,9.92
2019-03-16T05:54:52.447Z,10.01
2019-03-16T05:55:32.867Z,9.98
2019-03-16T05:56:13.263Z,9.95
2019-03-16T05:56:53.629Z,9.98
2019-03-16T05:57:34.120Z,9.98
2019-03-16T05:58:14.517Z,9.98
2019-03-16T05:58:54.899Z,9.98
2019-03-16T05:59:35.316Z,10.02
2019-03-16T06:00:15.663Z,10.04
2019-03-16T06:00:56.600Z,10.01
2019-03-16T06:01:36.991Z,10.01
2019-03-16T06:02:17.341Z,10.06
2019-03-16T06:02:57.724Z,9.98
2019-03-16T06:03:38.158Z,9.95
2019-03-16T06:04:18.483Z,9.85
2019-03-16T06:05:09.693Z,9.96
2019-03-16T06:05:39.354Z,9.92
2019-03-16T06:06:19.713Z,9.92
2019-03-16T06:07:00.091Z,9.85
2019-03-16T06:07:40.455Z,9.75
2019-03-16T06:08:21.148Z,9.78
2019-03-16T06:09:01.437Z,9.75
2019-03-16T06:09:41.813Z,9.78
2019-03-16T06:10:22.225Z,9.74
2019-03-16T06:11:02.636Z,9.71
2019-03-16T06:11:42.990Z,9.67
2019-03-16T06:12:23.455Z,9.65
2019-03-16T06:13:03.854Z,9.7
2019-03-16T06:13:44.305Z,9.71
2019-03-16T06:14:25.383Z,9.68
2019-03-16T06:15:05.731Z,9.68
2019-03-16T06:15:50.207Z,9.67
2019-03-16T06:16:30.547Z,9.74
2019-03-16T06:17:10.992Z,9.75
2019-03-16T06:17:51.359Z,9.74
2019-03-16T06:18:31.750Z,9.8
2019-03-16T06:19:12.091Z,9.78
2019-03-16T06:19:52.501Z,9.91
2019-03-16T06:20:33.604Z,9.91
2019-03-16T06:21:13.695Z,10.02
2019-03-16T06:21:54.019Z,10.07
2019-03-16T06:22:34.636Z,10.18
2019-03-16T06:23:19.986Z,10.24
2019-03-16T06:24:00.328Z,10.26
2019-03-16T06:24:41.402Z,10.44
2019-03-16T06:25:24.488Z,10.57
2019-03-16T06:26:06.724Z,10.76
2019-03-16T06:26:49.330Z,10.84
2019-03-16T06:27:30.692Z,10.81
2019-03-16T06:28:14.401Z,10.93
2019-03-16T06:28:54.738Z,11.02
2019-03-16T06:29:35.349Z,11.11
2019-03-16T06:30:16.924Z,11.17
2019-03-16T06:30:58.867Z,11.23
2019-03-16T06:31:41.131Z,11.3
2019-03-16T06:32:21.562Z,11.28
2019-03-16T06:33:01.873Z,11.44
2019-03-16T06:33:43.396Z,11.51
2019-03-16T06:34:24.352Z,11.64
2019-03-16T06:35:04.289Z,11.63
2019-03-16T06:35:45.318Z,11.78
2019-03-16T06:36:27.824Z,11.82
2019-03-16T06:37:08.528Z,11.88
2019-03-16T06:37:49.679Z,11.98
2019-03-16T06:38:30.830Z,11.87
2019-03-16T06:39:11.387Z,11.94
2019-03-16T06:39:51.966Z,12
2019-03-16T06:40:32.259Z,12.01
2019-03-16T06:41:13.436Z,11.97
2019-03-16T06:41:53.935Z,11.93
2019-03-16T06:42:34.432Z,11.93
2019-03-16T06:43:25.339Z,11.93
2019-03-16T06:44:06.015Z,11.98
2019-03-16T06:44:47.741Z,11.94
2019-03-16T06:45:28.118Z,12
2019-03-16T06:46:08.559Z,12.07
2019-03-16T06:46:48.906Z,12.03
2019-03-16T06:47:29.338Z,12.13
2019-03-16T06:48:11.547Z,12.08
2019-03-16T06:48:52.050Z,12.12
2019-03-16T06:49:32.453Z,12.03
2019-03-16T06:50:12.884Z,12.12
2019-03-16T06:50:56.863Z,12.01
2019-03-16T06:51:37.601Z,12.15
2019-03-16T06:52:17.921Z,12.15
2019-03-16T06:52:58.476Z,12.16
2019-03-16T06:53:40.504Z,12.13
2019-03-16T06:54:20.878Z,12.13
2019-03-16T06:55:02.233Z,12.18
2019-03-16T06:55:42.542Z,12.13
2019-03-16T06:56:22.942Z,12.18
2019-03-16T06:57:03.787Z,12.12
2019-03-16T06:57:44.275Z,12.11
2019-03-16T06:58:24.933Z,12.07
2019-03-16T06:59:05.163Z,12.07
2019-03-16T06:59:45.915Z,12.16
2019-03-16T07:00:26.389Z,12.13
2019-03-16T07:01:06.831Z,12.16
2019-03-16T07:01:47.241Z,12.26
2019-03-16T07:02:27.615Z,12.25
2019-03-16T07:03:09.768Z,12.25
2019-03-16T07:03:51.924Z,12.34
2019-03-16T07:04:32.489Z,12.36
2019-03-16T07:05:12.823Z,12.36
2019-03-16T07:05:53.101Z,12.37
2019-03-16T07:06:34.201Z,12.34
2019-03-16T07:07:14.703Z,12.37
2019-03-16T07:07:55.147Z,12.34
2019-03-16T07:08:35.656Z,12.33
2019-03-16T07:09:16.300Z,12.34
2019-03-16T07:09:58.752Z,12.37
2019-03-16T07:10:39.174Z,12.4
2019-03-16T07:11:21.420Z,12.43
2019-03-16T07:12:08.623Z,12.29
2019-03-16T07:12:51.079Z,12.37
2019-03-16T07:13:33.284Z,12.38
2019-03-16T07:14:16.163Z,12.48
2019-03-16T07:14:56.949Z,12.48
2019-03-16T07:15:37.373Z,12.4
2019-03-16T07:16:21.616Z,12.37
2019-03-16T07:17:02.606Z,12.4
2019-03-16T07:17:42.292Z,12.41
2019-03-16T07:18:24.770Z,12.48
2019-03-16T07:19:06.944Z,12.43
2019-03-16T07:19:47.366Z,12.4
2019-03-16T07:20:27.755Z,12.43
2019-03-16T07:21:08.542Z,12.3
2019-03-16T07:21:48.928Z,12.33
2019-03-16T07:22:30.594Z,12.4
2019-03-16T07:23:10.955Z,12.34
2019-03-16T07:23:53.237Z,12.29
2019-03-16T07:24:33.661Z,12.37
2019-03-16T07:25:14.102Z,12.38
2019-03-16T07:25:59.329Z,12.34
2019-03-16T07:26:39.640Z,12.36
2019-03-16T07:27:26.281Z,12.4
2019-03-16T07:28:02.833Z,12.38
2019-03-16T07:28:43.101Z,12.34
2019-03-16T07:29:27.007Z,12.37
2019-03-16T07:30:08.439Z,12.37
2019-03-16T07:30:50.695Z,12.36
2019-03-16T07:31:30.971Z,12.37
2019-03-16T07:32:12.893Z,12.38
2019-03-16T07:32:57.113Z,12.37
2019-03-16T07:33:37.487Z,12.48
2019-03-16T07:34:17.879Z,12.48
2019-03-16T07:34:59.772Z,12.46
2019-03-16T07:35:40.058Z,12.4
2019-03-16T07:36:20.547Z,12.49
2019-03-16T07:37:04.237Z,12.52
2019-03-16T07:37:46.021Z,12.46
2019-03-16T07:38:26.641Z,12.48
2019-03-16T07:39:07.317Z,12.36
2019-03-16T07:39:47.625Z,12.37
2019-03-16T07:40:30.106Z,12.43
2019-03-16T07:41:10.427Z,12.51
2019-03-16T07:41:51.794Z,12.43
2019-03-16T07:42:37.428Z,12.4
2019-03-16T07:43:17.854Z,12.44
2019-03-16T07:44:00.003Z,12.44
2019-03-16T07:44:40.451Z,12.43
2019-03-16T07:45:22.580Z,12.51
2019-03-16T07:46:02.918Z,12.43
2019-03-16T07:46:43.434Z,12.43
2019-03-16T07:47:25.456Z,12.41
2019-03-16T07:48:05.798Z,12.4
2019-03-16T07:48:46.406Z,12.37
2019-03-16T07:49:27.440Z,12.46
2019-03-16T07:50:13.642Z,12.44
2019-03-16T07:50:54.113Z,12.37
2019-03-16T07:51:34.711Z,12.41
2019-03-16T07:52:15.299Z,12.4
2019-03-16T07:52:56.233Z,12.38
2019-03-16T07:53:38.880Z,12.33
2019-03-16T07:54:19.347Z,12.33
2019-03-16T07:54:59.746Z,12.36
2019-03-16T07:55:42.188Z,12.41
2019-03-16T07:56:24.367Z,12.36
2019-03-16T07:57:06.442Z,12.38
2019-03-16T07:57:47.002Z,12.43
2019-03-16T07:58:27.477Z,12.37
2019-03-16T07:59:07.789Z,12.48
2019-03-16T07:59:48.209Z,12.48
2019-03-16T08:00:28.584Z,12.4
2019-03-16T08:01:10.594Z,12.58
2019-03-16T08:01:52.012Z,12.48
2019-03-16T08:02:32.702Z,12.52
2019-03-16T08:03:13.090Z,12.4
2019-03-16T08:03:53.372Z,12.4
2019-03-16T08:04:33.957Z,12.34
2019-03-16T08:05:18.450Z,12.37
2019-03-16T08:05:54.644Z,12.44
2019-03-16T08:06:35.574Z,12.54
2019-03-16T08:07:16.330Z,12.44
2019-03-16T08:07:58.778Z,12.54
2019-03-16T08:08:39.040Z,12.55
2019-03-16T08:09:21.187Z,12.54
2019-03-16T08:10:04.083Z,12.56
2019-03-16T08:10:45.857Z,12.56
2019-03-16T08:11:28.051Z,12.62
2019-03-16T08:12:09.779Z,12.61
2019-03-16T08:12:51.008Z,12.59
2019-03-16T08:13:32.448Z,12.56
2019-03-16T08:14:14.143Z,12.56
2019-03-16T08:14:54.915Z,12.54
2019-03-16T08:15:35.527Z,12.54
2019-03-16T08:16:15.900Z,12.59
2019-03-16T08:16:59.075Z,12.61
2019-03-16T08:17:41.514Z,12.59
2019-03-16T08:18:21.675Z,12.54
2019-03-16T08:19:02.037Z,12.54
2019-03-16T08:19:44.311Z,12.46
2019-03-16T08:20:24.665Z,12.49
2019-03-16T08:21:05.051Z,12.49
2019-03-16T08:21:48.291Z,12.38
2019-03-16T08:22:29.249Z,12.43
2019-03-16T08:23:09.604Z,12.4
2019-03-16T08:23:53.838Z,12.44
2019-03-16T08:24:35.444Z,12.41
2019-03-16T08:25:16.187Z,12.43
2019-03-16T08:25:59.443Z,12.48
2019-03-16T08:26:41.926Z,12.44
2019-03-16T08:27:24.129Z,12.46
2019-03-16T08:28:04.560Z,12.48
2019-03-16T08:28:44.920Z,12.56
2019-03-16T08:29:25.467Z,12.56
2019-03-16T08:30:06.854Z,12.62
2019-03-16T08:30:48.525Z,12.55
2019-03-16T08:31:28.893Z,12.7
2019-03-16T08:32:10.202Z,12.67
2019-03-16T08:32:51.550Z,12.61
2019-03-16T08:33:32.213Z,12.61
2019-03-16T08:34:15.423Z,12.61
2019-03-16T08:34:56.094Z,12.56
2019-03-16T08:35:38.871Z,12.59
2019-03-16T08:36:21.015Z,12.62
2019-03-16T08:37:01.339Z,12.63
2019-03-16T08:37:41.730Z,12.56
2019-03-16T08:38:26.760Z,12.4
2019-03-16T08:39:07.123Z,12.49
2019-03-16T08:39:49.104Z,12.51
2019-03-16T08:40:30.852Z,12.41
2019-03-16T08:41:12.093Z,12.49
2019-03-16T08:41:58.658Z,12.49
2019-03-16T08:42:39.990Z,12.51
2019-03-16T08:43:19.617Z,12.46
2019-03-16T08:44:01.893Z,12.43
2019-03-16T08:44:42.405Z,12.43
2019-03-16T08:45:22.870Z,12.48
2019-03-16T08:46:03.243Z,12.49
2019-03-16T08:46:43.565Z,12.56
2019-03-16T08:47:24.938Z,12.54
2019-03-16T08:48:05.374Z,12.56
2019-03-16T08:48:45.806Z,12.49
2019-03-16T08:49:26.450Z,12.55
2019-03-16T08:50:08.581Z,12.56
2019-03-16T08:50:49.340Z,12.58
2019-03-16T08:51:29.718Z,12.59
2019-03-16T08:52:10.979Z,12.71
2019-03-16T08:52:53.585Z,12.62
2019-03-16T08:53:32.049Z,12.66
2019-03-16T08:54:12.480Z,12.61
2019-03-16T08:54:54.331Z,12.7
2019-03-16T08:55:37.422Z,12.74
2019-03-16T08:56:19.641Z,12.81
2019-03-16T08:56:59.983Z,12.8
2019-03-16T08:57:40.416Z,12.79
2019-03-16T08:58:22.751Z,12.7
2019-03-16T08:59:03.509Z,12.81
2019-03-16T08:59:44.080Z,12.84
2019-03-16T09:00:24.339Z,12.7
2019-03-16T09:01:06.549Z,12.7
2019-03-16T09:01:47.013Z,12.71
2019-03-16T09:02:27.311Z,12.73
2019-03-16T09:03:07.763Z,12.8
2019-03-16T09:03:48.305Z,12.76
2019-03-16T09:04:29.726Z,12.81
2019-03-16T09:05:10.746Z,12.79
2019-03-16T09:05:50.895Z,12.77
2019-03-16T09:06:33.046Z,12.79
2019-03-16T09:07:13.506Z,12.74
2019-03-16T09:07:54.077Z,12.79
2019-03-16T09:08:34.963Z,12.73
2019-03-16T09:09:16.387Z,12.61
2019-03-16T09:09:58.818Z,12.62
2019-03-16T09:10:40.177Z,12.69
2019-03-16T09:11:23.553Z,12.67
2019-03-16T09:15:11.505Z,12.74
2019-03-16T09:15:51.903Z,12.7
2019-03-16T09:16:32.886Z,12.7
2019-03-16T09:17:12.890Z,12.73
2019-03-16T09:17:54.364Z,12.84
2019-03-16T09:18:35.213Z,12.61
2019-03-16T09:19:15.915Z,12.74
2019-03-16T09:19:57.245Z,12.62
2019-03-16T09:20:37.649Z,12.59
2019-03-16T09:21:18.122Z,12.62
2019-03-16T09:21:58.540Z,12.59
2019-03-16T09:22:38.937Z,12.63
2019-03-16T09:23:19.527Z,12.74
2019-03-16T09:24:01.237Z,12.77
2019-03-16T09:24:41.636Z,12.77
2019-03-16T09:25:24.185Z,12.8
2019-03-16T09:26:04.573Z,12.89
2019-03-16T09:26:45.840Z,12.87
2019-03-16T09:27:30.857Z,12.98
2019-03-16T09:28:17.993Z,12.99
2019-03-16T09:28:59.522Z,12.96
2019-03-16T09:29:31.208Z,13.06
2019-03-16T09:30:12.853Z,13.09
2019-03-16T09:30:56.477Z,13.1
2019-03-16T09:31:37.252Z,13.06
2019-03-16T09:32:18.562Z,12.99
2019-03-16T09:33:03.859Z,13.03
2019-03-16T09:33:44.081Z,13.1
2019-03-16T09:34:27.332Z,13.07
2019-03-16T09:39:16.425Z,13.28
2019-03-16T09:40:00.420Z,13.28
2019-03-16T09:40:41.136Z,13.38
2019-03-16T09:41:21.566Z,13.36
2019-03-16T09:42:03.493Z,13.46
2019-03-16T09:42:47.598Z,13.38
2019-03-16T09:43:28.188Z,13.36
2019-03-16T09:44:09.071Z,13.5
2019-03-16T09:44:51.151Z,13.44
2019-03-16T09:45:32.251Z,13.48
2019-03-16T09:46:12.491Z,13.5
2019-03-16T09:46:53.148Z,13.51
2019-03-16T09:47:33.678Z,13.47
2019-03-16T09:48:14.180Z,13.59
2019-03-16T09:48:56.095Z,13.53
2019-03-16T09:49:36.393Z,13.57
2019-03-16T09:50:17.893Z,13.54
2019-03-16T09:50:58.296Z,13.51
2019-03-16T09:51:38.701Z,13.65
2019-03-16T09:52:25.250Z,13.63
2019-03-16T09:53:06.619Z,13.65
2019-03-16T09:53:56.628Z,13.71
2019-03-16T09:54:39.465Z,13.76
2019-03-16T09:55:20.051Z,13.66
2019-03-16T09:56:02.769Z,13.69
2019-03-16T09:57:00.867Z,13.76
2019-03-16T09:57:32.962Z,13.68
2019-03-16T09:58:13.682Z,13.63
2019-03-16T09:58:54.346Z,13.69
2019-03-16T09:59:35.534Z,13.69
2019-03-16T10:00:16.913Z,13.61
2019-03-16T10:01:01.083Z,13.63
2019-03-16T10:01:41.772Z,13.71
2019-03-16T10:02:24.663Z,13.81
2019-03-16T10:03:05.061Z,13.73
2019-03-16T10:03:47.632Z,13.75
2019-03-16T10:04:29.613Z,13.86
2019-03-16T10:05:10.114Z,13.81
2019-03-16T10:05:50.539Z,13.88
2019-03-16T10:06:30.928Z,13.86
2019-03-16T10:07:11.587Z,13.87
2019-03-16T10:07:51.804Z,13.87
2019-03-16T10:08:32.146Z,13.81
2019-03-16T10:09:12.535Z,13.8
2019-03-16T10:09:54.053Z,13.87
2019-03-16T10:10:34.507Z,13.87
2019-03-16T10:11:14.931Z,13.9
2019-03-16T10:11:57.318Z,13.9
2019-03-16T10:12:38.749Z,13.88
2019-03-16T10:13:19.236Z,13.94
2019-03-16T10:14:00.231Z,13.98
2019-03-16T10:14:40.621Z,13.93
2019-03-16T10:15:21.972Z,13.88
2019-03-16T10:16:03.965Z,13.88
2019-03-16T10:16:46.543Z,13.94
2019-03-16T10:17:28.820Z,13.94
2019-03-16T10:18:12.059Z,13.94
2019-03-16T10:18:53.578Z,14.06
2019-03-16T10:19:36.074Z,14.04
2019-03-16T10:20:16.658Z,14.06
2019-03-16T10:21:01.552Z,14.06
2019-03-16T10:21:42.127Z,14.05
2019-03-16T10:22:23.412Z,13.99
2019-03-16T10:23:05.763Z,13.98
2019-03-16T10:23:46.206Z,13.94
2019-03-16T10:24:28.784Z,13.93
2019-03-16T10:25:09.479Z,13.88
2019-03-16T10:25:50.953Z,13.86
2019-03-16T10:26:33.618Z,13.88
2019-03-16T10:27:16.053Z,13.83
2019-03-16T10:27:56.438Z,13.84
2019-03-16T10:28:43.374Z,13.73
2019-03-16T10:29:18.858Z,13.86
2019-03-16T11:07:56.467Z,14.97
2019-03-16T11:14:44.998Z,15.66
2019-03-16T11:15:30.804Z,15.74
2019-03-16T11:16:12.823Z,15.85
2019-03-16T11:16:56.948Z,15.86
2019-03-16T11:17:40.405Z,15.86
2019-03-16T11:18:20.880Z,15.8
2019-03-16T11:19:01.196Z,15.74
2019-03-16T11:19:41.934Z,15.68
2019-03-16T11:20:22.409Z,15.6
2019-03-16T11:21:04.656Z,15.66
2019-03-16T11:21:45.108Z,15.41
2019-03-16T11:22:26.571Z,15.41
2019-03-16T11:23:06.959Z,15.41
2019-03-16T11:23:49.032Z,15.33
2019-03-16T11:24:31.380Z,15.15
2019-03-16T11:32:09.900Z,14.54
2019-03-16T11:32:53.222Z,14.64
2019-03-16T11:33:33.753Z,14.61
2019-03-16T11:34:15.553Z,14.61
2019-03-16T11:34:56.205Z,14.56
2019-03-16T11:35:38.053Z,14.59
2019-03-16T11:36:18.510Z,14.59
2019-03-16T11:37:00.697Z,14.6
2019-03-16T11:37:41.006Z,14.48
2019-03-16T11:38:22.484Z,14.46
2019-03-16T11:39:02.929Z,14.39
2019-03-16T11:39:45.112Z,14.35
2019-03-16T11:40:25.663Z,14.34
2019-03-16T11:41:07.593Z,14.38
2019-03-16T11:41:50.331Z,14.42
2019-03-16T11:42:30.948Z,14.31
2019-03-16T11:43:13.233Z,14.31
2019-03-16T11:43:53.689Z,14.31